Time;durP1;ratioP1;P1;durP2;ratioP2;P2;SDS_P1;SDS_P2;PMS_P1;PMS_P2;Temp;Humidity;BMP_temperature;BMP_pressure;BME280_temperature;BME280_humidity;BME280_pressure;Samples;Min_cycle;Max_cycle;Signal;HPM_P1;HPM_P2
2022/12/25 00:00:22;;;;;;;58.00;20.90;;;;;;;;;;4962832;28;20133;-76
2022/12/25 00:02:48;;;;;;;64.97;22.98;;;;;;;;;;4978552;28;20047;-76
2022/12/25 00:05:14;;;;;;;68.80;21.80;;;;;;;;;;4992767;28;20038;-75
2022/12/25 00:07:40;;;;;;;62.67;21.60;;;;;;;;;;4991265;28;20503;-75
2022/12/25 00:10:07;;;;;;;74.82;23.25;;;;;;;;;;4992070;28;20133;-75
2022/12/25 00:12:33;;;;;;;58.55;21.55;;;;;;;;;;4993034;28;20395;-75
2022/12/25 00:14:59;;;;;;;58.90;21.35;;;;;;;;;;4990775;28;20482;-75
2022/12/25 00:17:25;;;;;;;70.63;21.75;;;;;;;;;;4996104;28;20117;-75
2022/12/25 00:19:51;;;;;;;53.15;19.08;;;;;;;;;;4994680;28;20166;-75
2022/12/25 00:22:17;;;;;;;60.33;21.35;;;;;;;;;;5008456;28;20046;-75
2022/12/25 00:24:43;;;;;;;59.55;20.42;;;;;;;;;;4992201;28;20076;-76
2022/12/25 00:27:09;;;;;;;61.83;20.67;;;;;;;;;;4977359;28;20550;-76
2022/12/25 00:29:35;;;;;;;60.50;21.13;;;;;;;;;;4995644;28;20053;-76
2022/12/25 00:32:01;;;;;;;63.95;21.33;;;;;;;;;;4981088;28;20469;-76
2022/12/25 00:34:27;;;;;;;61.25;21.27;;;;;;;;;;4988455;28;20523;-76
2022/12/25 00:36:53;;;;;;;64.72;21.85;;;;;;;;;;4995915;28;20039;-76
2022/12/25 00:39:19;;;;;;;57.95;21.08;;;;;;;;;;4970751;28;20046;-76
2022/12/25 00:44:30;;;;;;;52.22;19.55;;;;;;;;;;4998013;28;20042;-76
2022/12/25 00:46:56;;;;;;;60.33;20.30;;;;;;;;;;4979709;28;20078;-76
2022/12/25 00:49:22;;;;;;;48.30;19.63;;;;;;;;;;5011161;28;20167;-76
2022/12/25 00:51:49;;;;;;;57.83;19.75;;;;;;;;;;5001031;28;20041;-76
2022/12/25 00:54:15;;;;;;;55.95;19.70;;;;;;;;;;4979777;28;20046;-76
2022/12/25 00:56:41;;;;;;;65.68;21.00;;;;;;;;;;4977852;28;20482;-75
2022/12/25 00:59:07;;;;;;;53.00;19.73;;;;;;;;;;5001047;28;20100;-76
2022/12/25 01:01:34;;;;;;;61.80;19.88;;;;;;;;;;4997261;28;20046;-76
2022/12/25 01:04:00;;;;;;;56.97;20.65;;;;;;;;;;4998209;28;20046;-76
2022/12/25 01:06:26;;;;;;;54.28;20.15;;;;;;;;;;4995306;28;20049;-76
2022/12/25 01:11:37;;;;;;;54.72;18.83;;;;;;;;;;4998013;28;20053;-76
2022/12/25 01:14:03;;;;;;;57.10;19.17;;;;;;;;;;4998004;28;20556;-76
2022/12/25 01:16:29;;;;;;;66.22;20.08;;;;;;;;;;5012733;28;20061;-76
2022/12/25 01:18:55;;;;;;;65.45;19.73;;;;;;;;;;4996717;28;20057;-76
2022/12/25 01:21:22;;;;;;;60.70;20.27;;;;;;;;;;4979272;28;20050;-76
2022/12/25 01:23:49;;;;;;;56.10;19.95;;;;;;;;;;5005518;28;20042;-76
2022/12/25 01:26:16;;;;;;;60.72;20.75;;;;;;;;;;4970566;28;20048;-76
2022/12/25 01:28:43;;;;;;;54.28;19.75;;;;;;;;;;4979765;28;20046;-76
2022/12/25 01:31:11;;;;;;;51.90;18.60;;;;;;;;;;4996068;28;20050;-75
2022/12/25 01:33:37;;;;;;;58.78;20.00;;;;;;;;;;4997050;28;20042;-76
2022/12/25 01:36:04;;;;;;;51.10;18.85;;;;;;;;;;5001799;28;20050;-76
2022/12/25 01:38:30;;;;;;;61.28;20.85;;;;;;;;;;4997466;28;20049;-76
2022/12/25 01:40:56;;;;;;;62.47;20.55;;;;;;;;;;4988173;28;20398;-76
2022/12/25 01:43:24;;;;;;;75.53;20.92;;;;;;;;;;4996477;28;20046;-75
2022/12/25 01:45:51;;;;;;;51.20;18.98;;;;;;;;;;4981577;28;20081;-76
2022/12/25 01:48:23;;;;;;;57.25;20.92;;;;;;;;;;4996795;28;20060;-76
2022/12/25 01:50:53;;;;;;;61.88;21.58;;;;;;;;;;4979003;28;20046;-76
2022/12/25 01:53:19;;;;;;;73.97;21.98;;;;;;;;;;4978913;28;20426;-76
2022/12/25 01:55:47;;;;;;;67.07;20.85;;;;;;;;;;4983914;28;20049;-76
2022/12/25 01:58:13;;;;;;;63.45;21.98;;;;;;;;;;4997840;28;20042;-76
2022/12/25 02:00:39;;;;;;;68.30;22.02;;;;;;;;;;4997611;28;20054;-76
2022/12/25 02:03:05;;;;;;;68.78;23.45;;;;;;;;;;4993214;28;20046;-76
2022/12/25 02:05:32;;;;;;;69.90;23.45;;;;;;;;;;5002351;28;20046;-76
2022/12/25 02:08:00;;;;;;;65.80;22.30;;;;;;;;;;4980757;28;20181;-76
2022/12/25 02:10:26;;;;;;;71.90;22.67;;;;;;;;;;4991546;28;20049;-76
2022/12/25 02:12:52;;;;;;;74.25;24.90;;;;;;;;;;5013749;28;20038;-76
2022/12/25 02:15:20;;;;;;;67.22;22.23;;;;;;;;;;5016136;28;20054;-76
2022/12/25 02:18:01;;;;;;;82.10;25.27;;;;;;;;;;5014025;28;20049;-76
2022/12/25 02:20:33;;;;;;;70.65;22.60;;;;;;;;;;5008605;28;20455;-76
2022/12/25 02:23:17;;;;;;;67.70;23.42;;;;;;;;;;5004283;28;20073;-76
2022/12/25 02:26:01;;;;;;;54.63;22.38;;;;;;;;;;4998757;28;20120;-76
2022/12/25 02:28:33;;;;;;;68.60;23.00;;;;;;;;;;4995552;28;20057;-75
2022/12/25 02:31:11;;;;;;;66.13;23.23;;;;;;;;;;5007664;28;20113;-76
2022/12/25 02:36:29;;;;;;;69.82;24.27;;;;;;;;;;4995270;28;20054;-76
2022/12/25 02:41:45;;;;;;;67.00;25.05;;;;;;;;;;4996376;28;20053;-76
2022/12/25 03:06:43;;;;;;;78.93;28.43;;;;;;;;;;4996561;28;20136;-76
2022/12/25 03:12:15;;;;;;;69.18;27.75;;;;;;;;;;5014337;28;20136;-77
2022/12/25 03:17:26;;;;;;;75.07;27.88;;;;;;;;;;4994492;28;20050;-76
2022/12/25 03:28:07;;;;;;;84.22;29.58;;;;;;;;;;5012783;28;20081;-76
2022/12/25 03:31:10;;;;;;;81.43;30.15;;;;;;;;;;5013854;28;20506;-76
2022/12/25 03:35:21;;;;;;;73.32;28.08;;;;;;;;;;5012246;28;20046;-76
2022/12/25 03:36:55;;;;;;;85.63;28.98;;;;;;;;;;4997936;28;20125;-76
2022/12/25 03:45:51;;;;;;;80.97;29.05;;;;;;;;;;4996043;28;20049;-76
2022/12/25 04:37:39;;;;;;;76.25;27.65;;;;;;;;;;4956184;28;20055;-76
2022/12/25 04:40:05;;;;;;;78.90;26.42;;;;;;;;;;4956647;28;20051;-76
2022/12/25 04:42:31;;;;;;;73.85;25.90;;;;;;;;;;4975705;28;20118;-76
2022/12/25 04:44:57;;;;;;;77.65;26.40;;;;;;;;;;4966292;28;20043;-76
2022/12/25 04:47:23;;;;;;;76.28;25.38;;;;;;;;;;4998857;28;20046;-76
2022/12/25 04:49:49;;;;;;;83.57;27.52;;;;;;;;;;4999100;28;20046;-76
2022/12/25 04:52:15;;;;;;;78.40;27.73;;;;;;;;;;4998235;28;20445;-76
2022/12/25 04:54:41;;;;;;;78.95;27.92;;;;;;;;;;5001481;28;20510;-76
2022/12/25 04:57:07;;;;;;;86.68;28.23;;;;;;;;;;5007566;28;20410;-76
2022/12/25 04:59:33;;;;;;;78.95;27.35;;;;;;;;;;4996929;28;20038;-76
2022/12/25 05:01:59;;;;;;;65.85;25.50;;;;;;;;;;4997378;28;20046;-76
2022/12/25 05:04:25;;;;;;;70.35;26.05;;;;;;;;;;4994611;28;20101;-76
2022/12/25 05:06:51;;;;;;;70.13;27.00;;;;;;;;;;4997800;28;20056;-76
2022/12/25 05:09:17;;;;;;;70.53;25.45;;;;;;;;;;4989679;28;20041;-76
2022/12/25 05:11:43;;;;;;;65.75;26.25;;;;;;;;;;5011687;28;20046;-76
2022/12/25 05:14:09;;;;;;;66.82;27.35;;;;;;;;;;5015986;28;20109;-76
2022/12/25 05:16:35;;;;;;;66.03;26.27;;;;;;;;;;4999136;28;20053;-76
2022/12/25 05:19:01;;;;;;;63.90;24.65;;;;;;;;;;4982565;28;20383;-76
2022/12/25 05:21:27;;;;;;;71.63;26.73;;;;;;;;;;4998065;28;20042;-76
2022/12/25 05:23:53;;;;;;;66.68;26.25;;;;;;;;;;5010612;28;20042;-76
2022/12/25 05:26:22;;;;;;;68.03;26.50;;;;;;;;;;5013681;28;20045;-76
2022/12/25 05:28:48;;;;;;;60.05;26.63;;;;;;;;;;5008699;28;20102;-76
2022/12/25 05:31:14;;;;;;;64.93;25.52;;;;;;;;;;5012159;28;20053;-76
2022/12/25 05:33:40;;;;;;;68.07;26.38;;;;;;;;;;4998486;28;20108;-76
2022/12/25 05:36:08;;;;;;;66.43;27.70;;;;;;;;;;4997811;28;20092;-76
2022/12/25 05:38:38;;;;;;;71.22;26.00;;;;;;;;;;4984272;28;20041;-76
2022/12/25 05:41:04;;;;;;;59.90;25.95;;;;;;;;;;4991518;28;20054;-76
2022/12/25 05:43:30;;;;;;;61.45;24.52;;;;;;;;;;4994493;28;20054;-76
2022/12/25 05:45:56;;;;;;;63.60;25.88;;;;;;;;;;5015949;28;20041;-76
2022/12/25 05:48:22;;;;;;;63.13;25.27;;;;;;;;;;4999226;28;20046;-76
2022/12/25 05:50:48;;;;;;;53.22;23.50;;;;;;;;;;4998366;28;20046;-76
2022/12/25 05:53:15;;;;;;;58.38;24.92;;;;;;;;;;5014905;28;20482;-76
2022/12/25 05:55:45;;;;;;;61.22;26.13;;;;;;;;;;4980986;28;20193;-76
2022/12/25 05:58:12;;;;;;;57.28;25.55;;;;;;;;;;4994901;28;20042;-76
2022/12/25 06:00:38;;;;;;;60.63;25.75;;;;;;;;;;4995385;28;20458;-76
2022/12/25 06:03:04;;;;;;;57.40;24.67;;;;;;;;;;4985072;28;20442;-76
2022/12/25 06:05:31;;;;;;;63.15;25.05;;;;;;;;;;5015807;28;20068;-76
2022/12/25 06:07:57;;;;;;;56.20;24.20;;;;;;;;;;5012971;28;20041;-76
2022/12/25 06:10:23;;;;;;;55.80;24.05;;;;;;;;;;4994790;28;20129;-76
2022/12/25 06:12:49;;;;;;;57.13;24.55;;;;;;;;;;5004700;28;20433;-76
2022/12/25 06:15:15;;;;;;;59.53;24.77;;;;;;;;;;4995374;28;20558;-76
2022/12/25 06:17:41;;;;;;;52.53;25.20;;;;;;;;;;5011200;28;20117;-76
2022/12/25 06:20:10;;;;;;;57.08;24.15;;;;;;;;;;4978883;28;20054;-76
2022/12/25 06:22:36;;;;;;;52.45;23.17;;;;;;;;;;4978661;28;20050;-76
2022/12/25 06:25:02;;;;;;;55.92;23.85;;;;;;;;;;5012363;28;20073;-76
2022/12/25 06:27:28;;;;;;;54.25;25.00;;;;;;;;;;5015417;28;20038;-76
2022/12/25 06:29:54;;;;;;;54.97;25.05;;;;;;;;;;4980341;28;20112;-81
2022/12/25 06:32:23;;;;;;;60.65;24.40;;;;;;;;;;4993860;28;20069;-76
2022/12/25 06:34:49;;;;;;;54.92;24.52;;;;;;;;;;4997377;28;20045;-76
2022/12/25 06:37:15;;;;;;;61.30;23.52;;;;;;;;;;4987997;28;20046;-76
2022/12/25 06:39:41;;;;;;;52.20;23.15;;;;;;;;;;4992809;28;20398;-77
2022/12/25 06:42:07;;;;;;;46.47;22.63;;;;;;;;;;4990914;28;20095;-76
2022/12/25 06:44:33;;;;;;;55.80;24.48;;;;;;;;;;4991882;28;20100;-76
2022/12/25 06:46:59;;;;;;;61.63;23.30;;;;;;;;;;5014691;28;20046;-76
2022/12/25 06:49:25;;;;;;;56.38;24.15;;;;;;;;;;4993513;28;20046;-76
2022/12/25 06:51:51;;;;;;;60.80;23.83;;;;;;;;;;4990330;28;20046;-77
2022/12/25 06:54:17;;;;;;;58.80;23.55;;;;;;;;;;5000916;28;20730;-76
2022/12/25 06:56:46;;;;;;;60.53;24.08;;;;;;;;;;5008020;28;20478;-77
2022/12/25 06:59:12;;;;;;;62.35;24.45;;;;;;;;;;5013905;28;20049;-76
2022/12/25 07:01:41;;;;;;;56.10;23.13;;;;;;;;;;4981822;28;20047;-77
2022/12/25 07:04:11;;;;;;;53.33;24.38;;;;;;;;;;4998497;28;20042;-76
2022/12/25 07:06:40;;;;;;;52.08;23.48;;;;;;;;;;5013603;28;20470;-77
2022/12/25 07:09:06;;;;;;;54.88;23.55;;;;;;;;;;5002169;28;20056;-76
2022/12/25 07:11:32;;;;;;;56.50;22.58;;;;;;;;;;4988568;28;20050;-77
2022/12/25 07:13:58;;;;;;;52.33;23.35;;;;;;;;;;4988616;28;20058;-77
2022/12/25 07:16:24;;;;;;;56.13;22.13;;;;;;;;;;4992838;28;20050;-78
2022/12/25 07:18:50;;;;;;;50.08;23.13;;;;;;;;;;4973896;28;20081;-77
2022/12/25 07:21:18;;;;;;;58.75;23.80;;;;;;;;;;5009487;28;20474;-77
2022/12/25 07:23:45;;;;;;;54.25;23.23;;;;;;;;;;4995832;28;20042;-79
2022/12/25 07:26:11;;;;;;;54.92;22.88;;;;;;;;;;5020046;28;20041;-79
2022/12/25 07:28:37;;;;;;;57.25;23.05;;;;;;;;;;4988949;28;20442;-77
2022/12/25 07:31:08;;;;;;;56.20;21.88;;;;;;;;;;4994928;28;20042;-77
2022/12/25 07:33:34;;;;;;;56.28;24.33;;;;;;;;;;5011776;28;20120;-76
2022/12/25 07:36:01;;;;;;;52.53;21.95;;;;;;;;;;5016873;28;20038;-77
2022/12/25 07:38:27;;;;;;;47.72;21.67;;;;;;;;;;4989004;28;20097;-77
2022/12/25 07:40:53;;;;;;;50.20;23.27;;;;;;;;;;5000940;28;20060;-77
2022/12/25 07:43:19;;;;;;;51.17;22.83;;;;;;;;;;5004870;28;20140;-77
2022/12/25 07:45:46;;;;;;;46.55;22.23;;;;;;;;;;5014889;28;20403;-76
2022/12/25 07:48:12;;;;;;;51.83;21.65;;;;;;;;;;5012136;28;20049;-76
2022/12/25 07:50:38;;;;;;;48.88;21.92;;;;;;;;;;5012418;28;20065;-77
2022/12/25 07:53:04;;;;;;;55.55;22.27;;;;;;;;;;5010183;28;20042;-77
2022/12/25 07:55:30;;;;;;;51.35;22.08;;;;;;;;;;5001098;28;20065;-77
2022/12/25 07:57:56;;;;;;;50.00;22.92;;;;;;;;;;4978406;28;20046;-76
2022/12/25 08:00:28;;;;;;;49.20;21.83;;;;;;;;;;5001094;28;20050;-76
2022/12/25 08:02:54;;;;;;;49.40;22.73;;;;;;;;;;5009502;28;20041;-76
2022/12/25 08:05:20;;;;;;;51.83;22.58;;;;;;;;;;5001999;28;20184;-76
2022/12/25 08:07:46;;;;;;;45.75;20.98;;;;;;;;;;5006997;28;20081;-76
2022/12/25 08:10:12;;;;;;;47.38;20.50;;;;;;;;;;4987528;28;20136;-76
2022/12/25 08:12:38;;;;;;;49.90;21.50;;;;;;;;;;5009545;28;20041;-76
2022/12/25 08:15:05;;;;;;;44.97;21.08;;;;;;;;;;4999972;28;20075;-76
2022/12/25 08:17:31;;;;;;;44.78;21.08;;;;;;;;;;5001911;28;20053;-79
2022/12/25 08:19:57;;;;;;;45.08;21.17;;;;;;;;;;5017663;28;20052;-77
2022/12/25 08:22:23;;;;;;;43.97;18.95;;;;;;;;;;5017248;28;20121;-76
2022/12/25 08:24:49;;;;;;;44.33;20.08;;;;;;;;;;5007666;28;20445;-77
2022/12/25 08:27:15;;;;;;;48.35;19.88;;;;;;;;;;4994519;28;20462;-76
2022/12/25 08:29:43;;;;;;;42.25;19.83;;;;;;;;;;4994130;28;20057;-76
2022/12/25 08:32:09;;;;;;;43.80;20.52;;;;;;;;;;4993387;28;20047;-76
2022/12/25 08:34:36;;;;;;;39.30;18.67;;;;;;;;;;5020747;28;20448;-76
2022/12/25 08:37:05;;;;;;;36.00;18.63;;;;;;;;;;5007511;28;20042;-76
2022/12/25 08:39:31;;;;;;;40.20;19.55;;;;;;;;;;4993744;28;20045;-76
2022/12/25 08:41:57;;;;;;;37.67;18.27;;;;;;;;;;4994342;28;20050;-76
2022/12/25 08:44:24;;;;;;;35.53;17.77;;;;;;;;;;5008706;28;20055;-76
2022/12/25 08:46:50;;;;;;;37.15;18.27;;;;;;;;;;5015738;28;20049;-76
2022/12/25 08:49:16;;;;;;;43.10;20.08;;;;;;;;;;5002228;28;20046;-76
2022/12/25 08:51:44;;;;;;;38.97;18.27;;;;;;;;;;5000713;28;20049;-77
2022/12/25 08:54:10;;;;;;;34.63;18.27;;;;;;;;;;5013387;28;20121;-76
2022/12/25 08:56:38;;;;;;;37.45;18.80;;;;;;;;;;4995914;28;20049;-76
2022/12/25 08:59:04;;;;;;;37.08;18.20;;;;;;;;;;5032545;28;20045;-76
2022/12/25 09:01:31;;;;;;;35.17;18.23;;;;;;;;;;5019325;28;20048;-75
2022/12/25 09:03:56;;;;;;;36.03;18.20;;;;;;;;;;5001092;28;20042;-76
2022/12/25 09:06:23;;;;;;;41.20;18.25;;;;;;;;;;4997618;28;20042;-76
2022/12/25 09:08:49;;;;;;;33.75;17.85;;;;;;;;;;5005770;28;20171;-76
2022/12/25 09:11:15;;;;;;;35.28;16.70;;;;;;;;;;4988041;28;20043;-76
2022/12/25 09:13:41;;;;;;;39.47;18.95;;;;;;;;;;5006026;28;20048;-76
2022/12/25 09:16:12;;;;;;;38.05;18.33;;;;;;;;;;4998421;28;20082;-77
2022/12/25 09:18:38;;;;;;;31.75;17.35;;;;;;;;;;4997966;28;20081;-77
2022/12/25 09:21:05;;;;;;;35.00;18.00;;;;;;;;;;5006914;28;20479;-77
2022/12/25 09:23:32;;;;;;;36.47;16.95;;;;;;;;;;5000849;28;20045;-76
2022/12/25 09:26:02;;;;;;;29.90;15.85;;;;;;;;;;5018475;28;20500;-76
2022/12/25 09:28:28;;;;;;;35.65;16.17;;;;;;;;;;5007414;28;20069;-76
2022/12/25 09:30:54;;;;;;;32.75;16.63;;;;;;;;;;4998782;28;20047;-76
2022/12/25 09:33:20;;;;;;;40.15;21.75;;;;;;;;;;4996916;28;20049;-77
2022/12/25 09:35:57;;;;;;;30.38;17.90;;;;;;;;;;4992410;28;20070;-77
2022/12/25 09:38:24;;;;;;;46.58;23.38;;;;;;;;;;4996287;28;20105;-76
2022/12/25 09:41:01;;;;;;;35.88;18.55;;;;;;;;;;5006851;28;20503;-76
2022/12/25 09:43:28;;;;;;;33.35;15.23;;;;;;;;;;5003264;28;20533;-76
2022/12/25 09:45:55;;;;;;;31.10;17.60;;;;;;;;;;5004731;28;20562;-77
2022/12/25 09:48:21;;;;;;;39.50;21.60;;;;;;;;;;4996900;28;20042;-76
2022/12/25 09:51:03;;;;;;;33.58;18.33;;;;;;;;;;4996517;28;20092;-76
2022/12/25 09:53:36;;;;;;;33.15;18.42;;;;;;;;;;5001678;28;20042;-77
2022/12/25 09:56:08;;;;;;;28.25;15.35;;;;;;;;;;5005606;28;20096;-77
2022/12/25 09:58:35;;;;;;;31.42;15.27;;;;;;;;;;5004194;28;20426;-76
2022/12/25 10:01:19;;;;;;;33.85;15.70;;;;;;;;;;5000058;28;20069;-76
2022/12/25 10:04:02;;;;;;;32.05;16.23;;;;;;;;;;5003342;28;20053;-76
2022/12/25 10:06:31;;;;;;;27.92;14.23;;;;;;;;;;5012503;28;20037;-76
2022/12/25 10:09:12;;;;;;;31.25;14.52;;;;;;;;;;4996966;28;20042;-76
2022/12/25 10:11:55;;;;;;;28.40;15.00;;;;;;;;;;4992610;28;20062;-76
2022/12/25 10:14:27;;;;;;;28.83;13.98;;;;;;;;;;5010424;28;20129;-77
2022/12/25 10:16:58;;;;;;;27.42;13.38;;;;;;;;;;4997493;28;20038;-77
2022/12/25 10:19:37;;;;;;;24.27;13.95;;;;;;;;;;5010336;28;20041;-77
2022/12/25 10:22:08;;;;;;;28.77;14.63;;;;;;;;;;5014651;28;20463;-77
2022/12/25 10:24:34;;;;;;;29.48;14.35;;;;;;;;;;5003081;28;20034;-76
2022/12/25 10:27:02;;;;;;;25.40;14.70;;;;;;;;;;5001516;28;20039;-76
2022/12/25 10:29:30;;;;;;;25.13;13.88;;;;;;;;;;5021240;28;20085;-76
2022/12/25 10:31:56;;;;;;;22.25;12.40;;;;;;;;;;5012522;28;20121;-76
2022/12/25 10:34:22;;;;;;;21.83;12.63;;;;;;;;;;4995652;28;20162;-76
2022/12/25 10:36:49;;;;;;;22.83;13.15;;;;;;;;;;4997506;28;20041;-77
2022/12/25 10:39:16;;;;;;;23.05;13.05;;;;;;;;;;5013252;28;20049;-82
2022/12/25 10:41:42;;;;;;;20.85;13.05;;;;;;;;;;5010549;28;20045;-80
2022/12/25 10:44:13;;;;;;;24.48;12.88;;;;;;;;;;4990625;28;20101;-77
2022/12/25 10:46:40;;;;;;;24.73;13.98;;;;;;;;;;5015549;28;20034;-77
2022/12/25 10:49:12;;;;;;;23.55;13.00;;;;;;;;;;5015705;28;20528;-77
2022/12/25 10:51:39;;;;;;;22.25;12.93;;;;;;;;;;5009634;28;20073;-76
2022/12/25 10:54:20;;;;;;;18.02;11.15;;;;;;;;;;5021815;28;20045;-76
2022/12/25 10:56:53;;;;;;;20.75;12.13;;;;;;;;;;4988613;28;20042;-76
2022/12/25 10:59:19;;;;;;;20.35;12.45;;;;;;;;;;5006498;28;20478;-77
2022/12/25 11:01:45;;;;;;;22.50;11.95;;;;;;;;;;5002631;28;20058;-77
2022/12/25 11:04:18;;;;;;;22.50;13.73;;;;;;;;;;4988945;28;20056;-77
2022/12/25 11:06:54;;;;;;;26.85;14.50;;;;;;;;;;5009989;28;20047;-76
2022/12/25 11:09:20;;;;;;;20.27;11.20;;;;;;;;;;5020605;28;20107;-76
2022/12/25 11:11:47;;;;;;;23.85;12.73;;;;;;;;;;5022938;28;20046;-76
2022/12/25 11:14:18;;;;;;;25.27;13.25;;;;;;;;;;4991123;28;20116;-77
2022/12/25 11:16:44;;;;;;;26.05;13.82;;;;;;;;;;5019328;28;20056;-77
2022/12/25 11:19:25;;;;;;;24.63;11.77;;;;;;;;;;5013608;28;20117;-77
2022/12/25 11:21:52;;;;;;;22.20;12.25;;;;;;;;;;5013384;28;20116;-77
2022/12/25 11:24:19;;;;;;;25.33;12.38;;;;;;;;;;5008992;28;20038;-80
2022/12/25 11:26:53;;;;;;;23.13;12.23;;;;;;;;;;4977869;28;20050;-77
2022/12/25 11:29:34;;;;;;;23.63;12.75;;;;;;;;;;5002872;28;20045;-77
2022/12/25 11:32:02;;;;;;;20.45;12.25;;;;;;;;;;5013901;28;20046;-77
2022/12/25 11:34:31;;;;;;;22.90;12.82;;;;;;;;;;5013432;28;20037;-76
2022/12/25 11:36:58;;;;;;;25.08;12.57;;;;;;;;;;4996261;28;20052;-77
2022/12/25 11:39:29;;;;;;;33.67;21.65;;;;;;;;;;5012037;28;20094;-76
2022/12/25 11:42:01;;;;;;;30.80;18.42;;;;;;;;;;4986258;28;20517;-77
2022/12/25 11:44:46;;;;;;;28.10;16.58;;;;;;;;;;4977723;28;20150;-77
2022/12/25 11:47:16;;;;;;;26.13;14.52;;;;;;;;;;5009168;28;20509;-77
2022/12/25 11:49:50;;;;;;;22.40;12.13;;;;;;;;;;4995497;28;20077;-77
2022/12/25 11:52:17;;;;;;;17.42;10.60;;;;;;;;;;5013795;28;20104;-78
2022/12/25 11:54:49;;;;;;;19.15;10.40;;;;;;;;;;5013511;28;20382;-78
2022/12/25 11:57:15;;;;;;;17.08;9.63;;;;;;;;;;5014443;28;20046;-78
2022/12/25 11:59:57;;;;;;;16.90;10.13;;;;;;;;;;5010120;28;20037;-78
2022/12/25 12:02:35;;;;;;;18.88;11.18;;;;;;;;;;4999670;28;20056;-77
2022/12/25 12:05:05;;;;;;;18.38;10.15;;;;;;;;;;5016556;28;20379;-77
2022/12/25 12:07:32;;;;;;;16.35;10.05;;;;;;;;;;5017345;28;20068;-77
2022/12/25 12:10:06;;;;;;;16.15;9.82;;;;;;;;;;5010915;28;20045;-78
2022/12/25 12:12:51;;;;;;;17.17;9.88;;;;;;;;;;5014726;28;20046;-78
2022/12/25 12:15:35;;;;;;;17.98;9.43;;;;;;;;;;5012950;28;20082;-77
2022/12/25 12:18:20;;;;;;;24.58;16.25;;;;;;;;;;5012803;28;20050;-77
2022/12/25 12:20:56;;;;;;;19.40;9.77;;;;;;;;;;5012220;28;20052;-78
2022/12/25 12:23:22;;;;;;;14.38;9.23;;;;;;;;;;5012808;28;20046;-77
2022/12/25 12:25:49;;;;;;;15.40;9.15;;;;;;;;;;5011974;28;20038;-77
2022/12/25 12:28:28;;;;;;;18.90;10.07;;;;;;;;;;5013251;28;20120;-77
2022/12/25 12:30:59;;;;;;;14.43;8.93;;;;;;;;;;5014861;28;20042;-77
2022/12/25 12:33:28;;;;;;;14.65;9.07;;;;;;;;;;5017344;28;20038;-78
2022/12/25 12:35:54;;;;;;;14.70;9.20;;;;;;;;;;5016212;28;20563;-77
2022/12/25 12:38:22;;;;;;;23.48;15.80;;;;;;;;;;5016691;28;20129;-77
2022/12/25 12:40:56;;;;;;;31.98;21.38;;;;;;;;;;5022493;28;20467;-78
2022/12/25 12:43:29;;;;;;;38.80;22.35;;;;;;;;;;5016877;28;20046;-77
2022/12/25 12:45:55;;;;;;;17.30;9.90;;;;;;;;;;4996829;28;20049;-78
2022/12/25 12:48:26;;;;;;;19.90;11.88;;;;;;;;;;4992874;28;20042;-78
2022/12/25 12:51:02;;;;;;;19.45;11.90;;;;;;;;;;5014194;28;20038;-77
2022/12/25 12:53:29;;;;;;;20.27;11.48;;;;;;;;;;5017566;28;20453;-79
2022/12/25 12:55:56;;;;;;;23.15;12.63;;;;;;;;;;5013897;28;20394;-78
2022/12/25 12:58:32;;;;;;;17.15;11.77;;;;;;;;;;5015235;28;20402;-77
2022/12/25 13:01:04;;;;;;;21.58;11.85;;;;;;;;;;4998671;28;20046;-78
2022/12/25 13:03:49;;;;;;;25.50;15.20;;;;;;;;;;5017045;28;20462;-79
2022/12/25 13:06:26;;;;;;;17.17;9.93;;;;;;;;;;5016302;28;20045;-78
2022/12/25 13:09:11;;;;;;;36.05;20.02;;;;;;;;;;4996947;28;20129;-78
2022/12/25 13:11:39;;;;;;;24.58;15.93;;;;;;;;;;5015626;28;20100;-77
2022/12/25 13:14:05;;;;;;;32.20;21.23;;;;;;;;;;5015844;28;20046;-77
2022/12/25 13:16:42;;;;;;;29.48;19.88;;;;;;;;;;5015266;28;20387;-77
2022/12/25 13:19:07;;;;;;;;;;;;;;;;;;5017739;28;20049;-77
2022/12/25 13:21:34;;;;;;;15.17;9.43;;;;;;;;;;5016150;28;19921;-76
2022/12/25 13:24:02;;;;;;;16.40;9.73;;;;;;;;;;5014892;28;20488;-77
2022/12/25 13:26:28;;;;;;;17.73;10.85;;;;;;;;;;5015440;28;20050;-77
2022/12/25 13:28:55;;;;;;;17.75;10.90;;;;;;;;;;5016163;28;20474;-77
2022/12/25 13:31:28;;;;;;;18.25;11.52;;;;;;;;;;4998250;28;20049;-76
2022/12/25 13:33:58;;;;;;;16.45;9.98;;;;;;;;;;5014963;28;20041;-77
2022/12/25 13:36:26;;;;;;;16.30;10.05;;;;;;;;;;5018069;28;20049;-77
2022/12/25 13:38:53;;;;;;;15.25;9.75;;;;;;;;;;5036096;28;20132;-77
2022/12/25 13:44:34;;;;;;;13.10;8.57;;;;;;;;;;5035762;28;20045;-76
2022/12/25 13:47:19;;;;;;;21.92;13.32;;;;;;;;;;5026446;28;20093;-77
2022/12/25 13:49:45;;;;;;;16.55;10.02;;;;;;;;;;5024252;28;20053;-77
2022/12/25 13:52:12;;;;;;;25.23;14.23;;;;;;;;;;5015567;28;20046;-77
2022/12/25 13:54:39;;;;;;;17.52;11.20;;;;;;;;;;5015708;28;20487;-78
2022/12/25 13:57:11;;;;;;;18.10;10.82;;;;;;;;;;4998394;28;20398;-77
2022/12/25 13:59:38;;;;;;;16.58;9.73;;;;;;;;;;4997889;28;20053;-77
2022/12/25 14:02:04;;;;;;;20.08;12.45;;;;;;;;;;5015699;28;20049;-76
2022/12/25 14:04:30;;;;;;;19.90;12.82;;;;;;;;;;5015268;28;20489;-77
2022/12/25 14:06:56;;;;;;;19.83;13.27;;;;;;;;;;5015902;28;20458;-76
2022/12/25 14:09:22;;;;;;;18.42;11.63;;;;;;;;;;5013499;28;20078;-77
2022/12/25 14:12:21;;;;;;;17.85;12.50;;;;;;;;;;5015224;28;20502;-77
2022/12/25 14:14:47;;;;;;;16.77;12.00;;;;;;;;;;4983295;28;20046;-78
2022/12/25 14:17:13;;;;;;;15.63;9.50;;;;;;;;;;5001661;28;20071;-78
2022/12/25 14:19:39;;;;;;;15.15;10.10;;;;;;;;;;4983550;28;20482;-79
2022/12/25 14:22:11;;;;;;;17.25;10.77;;;;;;;;;;4996607;28;20053;-80
2022/12/25 14:24:37;;;;;;;22.05;14.40;;;;;;;;;;5012974;28;20054;-77
2022/12/25 14:27:05;;;;;;;18.67;11.93;;;;;;;;;;5022692;28;20046;-77
2022/12/25 14:29:37;;;;;;;30.75;20.40;;;;;;;;;;5015500;28;20049;-77
2022/12/25 14:32:04;;;;;;;23.52;16.30;;;;;;;;;;5009369;28;20054;-77
2022/12/25 14:34:31;;;;;;;18.40;11.73;;;;;;;;;;5012342;28;20128;-77
2022/12/25 14:36:58;;;;;;;24.40;16.98;;;;;;;;;;5000591;28;20415;-77
2022/12/25 14:39:27;;;;;;;20.45;11.45;;;;;;;;;;5003954;28;20042;-76
2022/12/25 14:41:53;;;;;;;15.75;10.05;;;;;;;;;;5014851;28;20509;-76
2022/12/25 14:44:25;;;;;;;17.75;10.70;;;;;;;;;;5014331;28;20406;-77
2022/12/25 14:46:51;;;;;;;21.17;14.10;;;;;;;;;;5004028;28;20073;-77
2022/12/25 14:49:23;;;;;;;20.30;12.70;;;;;;;;;;5001729;28;20490;-77
2022/12/25 14:51:49;;;;;;;18.85;13.38;;;;;;;;;;5013721;28;20038;-77
2022/12/25 14:54:18;;;;;;;18.08;10.77;;;;;;;;;;5013636;28;20042;-77
2022/12/25 14:56:48;;;;;;;18.55;13.18;;;;;;;;;;5005558;28;20398;-76
2022/12/25 14:59:19;;;;;;;20.48;13.35;;;;;;;;;;5014277;28;20050;-77
2022/12/25 15:01:50;;;;;;;22.88;15.45;;;;;;;;;;5009983;28;20042;-76
2022/12/25 15:04:16;;;;;;;17.77;10.77;;;;;;;;;;4991533;28;20045;-77
2022/12/25 15:07:01;;;;;;;21.17;11.70;;;;;;;;;;5004875;28;20498;-77
2022/12/25 15:09:28;;;;;;;19.92;11.57;;;;;;;;;;4993748;28;20042;-77
2022/12/25 15:11:55;;;;;;;19.23;10.48;;;;;;;;;;5016986;28;20052;-77
2022/12/25 15:14:30;;;;;;;20.20;11.82;;;;;;;;;;5012400;28;20456;-77
2022/12/25 15:16:58;;;;;;;19.13;13.05;;;;;;;;;;5005155;28;20077;-77
2022/12/25 15:19:36;;;;;;;17.80;11.88;;;;;;;;;;5005038;28;20092;-76
2022/12/25 15:22:02;;;;;;;16.75;11.70;;;;;;;;;;4998236;28;20116;-77
2022/12/25 15:24:28;;;;;;;21.05;12.07;;;;;;;;;;5006219;28;20038;-77
2022/12/25 15:26:55;;;;;;;17.55;12.65;;;;;;;;;;5019183;28;20577;-77
2022/12/25 15:29:21;;;;;;;23.08;17.27;;;;;;;;;;4997826;28;20104;-77
2022/12/25 15:31:47;;;;;;;25.42;19.95;;;;;;;;;;5014368;28;20441;-77
2022/12/25 15:34:15;;;;;;;24.65;16.42;;;;;;;;;;5013177;28;20041;-78
2022/12/25 15:36:41;;;;;;;28.83;17.15;;;;;;;;;;4996533;28;20504;-78
2022/12/25 15:39:08;;;;;;;24.65;18.20;;;;;;;;;;4996475;28;20049;-77
2022/12/25 15:44:20;;;;;;;32.97;26.23;;;;;;;;;;4998467;28;20062;-77
2022/12/25 15:46:46;;;;;;;28.55;21.77;;;;;;;;;;4997278;28;20049;-77
2022/12/25 15:49:13;;;;;;;39.00;30.27;;;;;;;;;;5015609;28;20082;-77
2022/12/25 15:51:39;;;;;;;57.83;40.08;;;;;;;;;;4996772;28;20498;-77
2022/12/25 15:54:08;;;;;;;31.70;23.45;;;;;;;;;;5005334;28;20042;-76
2022/12/25 15:56:42;;;;;;;28.67;20.88;;;;;;;;;;5010210;28;20191;-77
2022/12/25 15:59:10;;;;;;;29.13;20.50;;;;;;;;;;5003485;28;20077;-77
2022/12/25 16:01:37;;;;;;;34.83;27.65;;;;;;;;;;5008521;28;20050;-77
2022/12/25 16:04:03;;;;;;;20.67;13.52;;;;;;;;;;5016977;28;20517;-77
2022/12/25 16:06:29;;;;;;;25.50;17.63;;;;;;;;;;5003496;28;20053;-77
2022/12/25 16:08:57;;;;;;;23.05;16.63;;;;;;;;;;4982105;28;20081;-77
2022/12/25 16:11:23;;;;;;;32.85;22.00;;;;;;;;;;4991476;28;20042;-77
2022/12/25 16:13:49;;;;;;;25.55;16.52;;;;;;;;;;4983543;28;20061;-77
2022/12/25 16:16:15;;;;;;;21.63;15.35;;;;;;;;;;5019045;28;20054;-77